Time;durP1;ratioP1;P1;durP2;ratioP2;P2;SDS_P1;SDS_P2;PMS_P1;PMS_P2;Temp;Humidity;BMP_temperature;BMP_pressure;BME280_temperature;BME280_humidity;BME280_pressure;Samples;Min_cycle;Max_cycle;Signal;HPM_P1;HPM_P2
2022/01/01 00:02:19;;;;;;;6.47;4.03;;;;;;;19.00;43.76;100345.75;5132258;27;20057;-64
2022/01/01 00:04:44;;;;;;;6.30;3.92;;;;;;;19.02;43.69;100349.00;5132655;27;20047;-64
2022/01/01 00:07:10;;;;;;;5.97;3.83;;;;;;;19.00;43.68;100354.06;5132228;27;20113;-64
2022/01/01 00:09:36;;;;;;;5.63;3.70;;;;;;;18.99;43.68;100341.34;5132164;27;20059;-64
2022/01/01 00:12:02;;;;;;;5.97;4.10;;;;;;;18.99;43.63;100344.13;5131962;27;20040;-64
2022/01/01 00:14:29;;;;;;;6.07;4.13;;;;;;;18.98;43.54;100340.53;5132052;27;20046;-64
2022/01/01 00:16:54;;;;;;;6.20;4.00;;;;;;;18.98;43.63;100345.28;5132168;27;20093;-64
2022/01/01 00:19:20;;;;;;;6.32;3.85;;;;;;;19.02;43.67;100353.75;5132008;27;20491;-64
2022/01/01 00:21:45;;;;;;;5.75;3.90;;;;;;;19.55;42.63;100355.66;5132126;27;20088;-64
2022/01/01 00:24:11;;;;;;;5.82;3.95;;;;;;;20.53;40.56;100350.19;5132063;27;20042;-64
2022/01/01 00:26:36;;;;;;;5.32;3.78;;;;;;;20.29;40.85;100340.72;5132079;27;20047;-64
2022/01/01 00:29:02;;;;;;;5.97;4.00;;;;;;;20.02;41.32;100336.66;5132003;27;20409;-64
2022/01/01 00:31:29;;;;;;;5.55;4.10;;;;;;;19.83;41.79;100343.94;5131927;27;20486;-55
2022/01/01 00:33:54;;;;;;;7.03;4.13;;;;;;;19.68;42.04;100343.44;5131617;27;20055;-55
2022/01/01 00:36:20;;;;;;;6.40;3.97;;;;;;;19.55;42.28;100339.00;5131778;27;20438;-55
2022/01/01 00:38:45;;;;;;;6.45;4.00;;;;;;;19.46;42.49;100335.50;5131968;27;20436;-55
2022/01/01 00:41:11;;;;;;;6.72;4.00;;;;;;;19.38;42.59;100340.00;5131763;27;20131;-55
2022/01/01 00:43:36;;;;;;;6.72;4.10;;;;;;;19.35;42.64;100343.44;5131858;28;20456;-55
2022/01/01 00:46:02;;;;;;;5.30;3.50;;;;;;;19.28;42.79;100345.97;5131695;28;20039;-55
2022/01/01 00:48:27;;;;;;;6.43;4.22;;;;;;;19.23;42.67;100341.47;5131613;27;20123;-55
2022/01/01 00:50:53;;;;;;;5.43;3.55;;;;;;;19.23;42.84;100344.25;5131615;27;20419;-55
2022/01/01 00:53:18;;;;;;;5.60;3.67;;;;;;;19.16;42.91;100335.66;5131419;27;20047;-55
2022/01/01 00:55:44;;;;;;;5.55;3.72;;;;;;;19.18;42.92;100335.31;5131387;28;20086;-64
2022/01/01 00:58:09;;;;;;;6.53;3.60;;;;;;;19.16;42.92;100337.63;5131346;27;20495;-64
2022/01/01 01:00:34;;;;;;;5.63;3.72;;;;;;;19.16;42.86;100337.63;5131394;27;20054;-64
2022/01/01 01:03:00;;;;;;;5.10;3.40;;;;;;;19.13;42.92;100329.97;5131367;28;20031;-55
2022/01/01 01:05:25;;;;;;;7.25;3.70;;;;;;;19.11;43.16;100330.31;5131201;27;20099;-55
2022/01/01 01:07:51;;;;;;;6.28;3.67;;;;;;;19.11;43.02;100333.09;5131578;27;20062;-55
2022/01/01 01:10:16;;;;;;;5.30;3.47;;;;;;;19.13;42.98;100333.56;5131370;27;20316;-55
2022/01/01 01:12:47;;;;;;;6.03;3.58;;;;;;;19.13;43.12;100335.53;5131106;27;20126;-55
2022/01/01 01:15:17;;;;;;;4.60;3.08;;;;;;;19.11;42.94;100340.59;5131206;27;20042;-55
2022/01/01 01:17:48;;;;;;;6.38;3.53;;;;;;;19.09;43.14;100329.06;5131054;27;20043;-55
2022/01/01 01:20:15;;;;;;;5.15;3.53;;;;;;;19.09;43.07;100320.72;5131084;27;20087;-55
2022/01/01 01:22:40;;;;;;;5.05;3.20;;;;;;;19.09;43.01;100331.81;5130978;27;20501;-64
2022/01/01 01:25:07;;;;;;;4.75;3.30;;;;;;;19.08;42.92;100325.47;5131024;27;20051;-64
2022/01/01 01:27:34;;;;;;;6.30;3.58;;;;;;;19.09;43.06;100326.28;5130633;27;20131;-64
2022/01/01 01:30:00;;;;;;;4.55;3.08;;;;;;;19.08;42.87;100324.66;5130069;27;20078;-64
2022/01/01 01:32:25;;;;;;;6.07;3.70;;;;;;;19.06;42.99;100319.44;5131019;27;20419;-64
2022/01/01 01:34:51;;;;;;;5.03;3.65;;;;;;;19.07;43.15;100323.81;5130829;27;20045;-64
2022/01/01 01:37:16;;;;;;;4.65;3.17;;;;;;;19.06;43.03;100324.97;5131026;27;20118;-64
2022/01/01 01:39:41;;;;;;;4.80;3.33;;;;;;;19.07;42.97;100323.00;5130766;28;20096;-64
2022/01/01 01:42:07;;;;;;;5.85;3.55;;;;;;;19.03;42.90;100325.66;5130776;27;20403;-64
2022/01/01 01:44:41;;;;;;;5.60;3.85;;;;;;;19.07;42.99;100332.13;5129900;27;20043;-64
2022/01/01 01:47:14;;;;;;;5.68;3.63;;;;;;;19.09;43.08;100324.31;5130667;27;20031;-64
2022/01/01 01:49:40;;;;;;;5.13;3.40;;;;;;;19.08;43.03;100319.91;5130960;27;20050;-64
2022/01/01 01:52:08;;;;;;;4.97;3.10;;;;;;;19.06;43.15;100316.66;5130754;27;20043;-64
2022/01/01 01:54:33;;;;;;;5.80;3.13;;;;;;;19.08;43.08;100317.16;5130672;27;20100;-63
2022/01/01 01:56:59;;;;;;;4.72;3.22;;;;;;;19.10;43.04;100317.63;5130587;27;20044;-64
2022/01/01 01:59:25;;;;;;;5.63;3.80;;;;;;;19.09;43.09;100324.31;5130686;27;20444;-64
2022/01/01 02:01:51;;;;;;;5.47;3.45;;;;;;;19.09;42.86;100312.41;5130390;28;20073;-55
2022/01/01 02:04:16;;;;;;;5.22;3.13;;;;;;;19.08;42.61;100317.16;5130430;27;20054;-55
2022/01/01 02:06:42;;;;;;;5.93;3.25;;;;;;;19.07;43.15;100312.72;5130507;28;20048;-55
2022/01/01 02:09:12;;;;;;;5.35;3.13;;;;;;;19.09;42.97;100317.97;5130335;27;20379;-64
2022/01/01 02:11:38;;;;;;;5.25;3.17;;;;;;;19.09;43.10;100301.31;5130376;27;20039;-65
2022/01/01 02:14:14;;;;;;;5.25;3.40;;;;;;;19.08;43.02;100310.78;5130580;27;20080;-64
2022/01/01 02:17:05;;;;;;;4.57;2.95;;;;;;;19.09;42.79;100302.13;5130572;27;20122;-55
2022/01/01 02:19:26;;;;;;;5.00;3.28;;;;;;;19.09;42.86;100304.09;5130241;28;20053;-55
2022/01/01 02:21:54;;;;;;;4.72;2.88;;;;;;;19.08;42.87;100296.94;5130225;27;20452;-55
2022/01/01 02:24:21;;;;;;;4.63;2.90;;;;;;;19.08;42.86;100288.63;5130214;27;20043;-55
2022/01/01 02:26:46;;;;;;;6.47;3.47;;;;;;;19.09;42.98;100291.03;5130111;27;20127;-55
2022/01/01 02:29:11;;;;;;;5.18;3.40;;;;;;;19.09;42.59;100293.81;5130085;27;20142;-55
2022/01/01 02:31:37;;;;;;;5.22;3.47;;;;;;;19.07;42.79;100293.31;5130299;27;20229;-64
2022/01/01 02:34:07;;;;;;;4.57;3.15;;;;;;;19.07;42.78;100300.81;5130475;28;20126;-65
2022/01/01 02:36:42;;;;;;;5.65;3.70;;;;;;;19.08;42.95;100296.94;5130427;27;20075;-55
2022/01/01 02:39:21;;;;;;;5.10;3.60;;;;;;;19.08;43.03;100294.97;5130296;27;20047;-56
2022/01/01 02:41:51;;;;;;;6.28;4.00;;;;;;;19.08;42.90;100300.50;5130074;27;20463;-55
2022/01/01 02:44:16;;;;;;;5.28;3.70;;;;;;;19.08;42.75;100296.94;5129911;27;20050;-64
2022/01/01 02:46:42;;;;;;;5.55;3.33;;;;;;;19.10;42.62;100302.94;5129986;27;20043;-64
2022/01/01 02:49:07;;;;;;;6.20;3.72;;;;;;;19.09;42.89;100293.00;5130186;28;20100;-64
2022/01/01 02:51:33;;;;;;;6.05;4.13;;;;;;;19.07;42.80;100290.56;5129913;27;20463;-64
2022/01/01 02:53:59;;;;;;;6.57;4.13;;;;;;;19.05;42.84;100289.28;5129657;27;20096;-64
2022/01/01 02:56:26;;;;;;;7.05;4.20;;;;;;;19.07;42.74;100285.00;5131799;27;20046;-63
2022/01/01 02:58:52;;;;;;;5.72;4.13;;;;;;;19.08;42.95;100286.66;5133421;27;20092;-62
2022/01/01 03:01:18;;;;;;;7.32;4.15;;;;;;;19.07;42.62;100285.00;5133428;27;20047;-64
2022/01/01 03:03:46;;;;;;;6.53;4.50;;;;;;;19.07;42.61;100293.31;5133241;27;20043;-64
2022/01/01 03:06:19;;;;;;;6.45;4.35;;;;;;;19.07;42.70;100290.56;5133032;27;20065;-63
2022/01/01 03:08:45;;;;;;;6.65;4.57;;;;;;;19.05;42.76;100290.09;5133094;27;20503;-64
2022/01/01 03:11:11;;;;;;;7.00;4.47;;;;;;;19.07;42.47;100289.75;5133030;27;20088;-64
2022/01/01 03:13:36;;;;;;;8.70;5.10;;;;;;;19.07;42.35;100286.97;5133144;28;20059;-64
2022/01/01 03:16:02;;;;;;;8.10;4.95;;;;;;;19.06;42.34;100286.16;5133228;27;20466;-64
2022/01/01 03:18:27;;;;;;;6.55;4.38;;;;;;;19.07;42.54;100289.75;5133005;28;20051;-64
2022/01/01 03:20:53;;;;;;;6.25;4.30;;;;;;;19.07;42.48;100289.75;5132985;28;20035;-55
2022/01/01 03:23:18;;;;;;;8.25;4.53;;;;;;;19.07;42.52;100285.00;5131653;28;20340;-55
2022/01/01 03:25:43;;;;;;;7.03;4.72;;;;;;;19.07;42.42;100287.78;5132717;28;20085;-55
2022/01/01 03:28:09;;;;;;;6.45;4.40;;;;;;;19.05;42.31;100287.31;5132646;28;20035;-55
2022/01/01 03:30:34;;;;;;;7.40;4.53;;;;;;;19.05;42.43;100286.50;5132647;28;20047;-55
2022/01/01 03:33:00;;;;;;;5.70;4.03;;;;;;;19.06;42.29;100285.34;5131502;28;20055;-55
2022/01/01 03:35:25;;;;;;;7.15;4.47;;;;;;;19.02;42.09;100281.66;5132674;28;20039;-55
2022/01/01 03:37:51;;;;;;;6.20;3.95;;;;;;;19.05;42.43;100284.53;5132713;28;20039;-55
2022/01/01 03:40:16;;;;;;;6.90;4.30;;;;;;;19.04;42.20;100280.16;5132745;28;20626;-63
2022/01/01 03:42:41;;;;;;;7.22;4.32;;;;;;;19.03;42.28;100281.31;5132795;28;20096;-64
2022/01/01 03:45:08;;;;;;;7.97;4.10;;;;;;;19.05;42.38;100276.22;5132692;27;20052;-55
2022/01/01 03:47:34;;;;;;;6.63;4.60;;;;;;;19.06;42.34;100277.84;5132297;27;20152;-55
2022/01/01 03:49:59;;;;;;;6.50;3.70;;;;;;;19.06;42.52;100274.25;5132490;27;20043;-55
2022/01/01 03:52:25;;;;;;;6.50;4.10;;;;;;;19.05;42.17;100279.00;5132671;28;20081;-55
2022/01/01 03:54:51;;;;;;;6.35;3.90;;;;;;;19.04;42.10;100274.59;5132600;27;20440;-55
2022/01/01 03:57:16;;;;;;;6.38;4.35;;;;;;;19.05;42.13;100272.66;5132322;27;20047;-64
2022/01/01 03:59:41;;;;;;;5.82;3.80;;;;;;;19.05;42.02;100269.88;5132499;27;20047;-64
2022/01/01 04:02:07;;;;;;;7.35;4.15;;;;;;;19.06;42.28;100269.53;5132263;28;20043;-64
2022/01/01 04:04:32;;;;;;;5.60;3.83;;;;;;;19.05;42.15;100267.09;5132386;28;20084;-64
2022/01/01 04:06:58;;;;;;;6.03;3.92;;;;;;;19.06;42.56;100266.75;5131728;27;20035;-55
2022/01/01 04:09:23;;;;;;;6.80;3.72;;;;;;;19.05;42.20;100264.31;5132076;28;20076;-55
2022/01/01 04:11:51;;;;;;;6.88;4.40;;;;;;;19.05;41.96;100267.09;5132101;28;20353;-55
2022/01/01 04:14:17;;;;;;;5.68;3.72;;;;;;;19.04;42.28;100269.06;5132217;27;20089;-55
2022/01/01 04:16:42;;;;;;;5.82;3.80;;;;;;;19.04;42.22;100269.06;5132148;27;20067;-55
2022/01/01 04:19:08;;;;;;;4.95;3.30;;;;;;;19.04;42.10;100271.84;5132401;27;20122;-64
2022/01/01 04:21:35;;;;;;;5.35;3.60;;;;;;;19.03;42.21;100270.22;5132076;27;20356;-63
2022/01/01 04:24:02;;;;;;;6.03;3.25;;;;;;;19.03;42.31;100270.22;5132336;27;20047;-64
2022/01/01 04:26:27;;;;;;;5.80;3.53;;;;;;;19.02;42.14;100263.06;5132038;27;20066;-64
2022/01/01 04:28:53;;;;;;;5.28;3.75;;;;;;;19.05;42.09;100269.88;5131811;27;20407;-64
2022/01/01 04:31:18;;;;;;;4.97;2.88;;;;;;;19.05;42.11;100269.88;5131767;28;20461;-55
2022/01/01 04:33:44;;;;;;;7.85;3.28;;;;;;;19.04;41.96;100269.06;5131842;27;20031;-55
2022/01/01 04:36:10;;;;;;;4.68;3.17;;;;;;;19.02;42.21;100265.84;5131757;27;20039;-55
2022/01/01 04:41:02;;;;;;;4.72;2.88;;;;;;;19.04;42.36;100263.53;5131690;27;20091;-55
2022/01/01 04:43:27;;;;;;;4.22;2.70;;;;;;;19.03;42.21;100270.22;5131581;27;20038;-55
2022/01/01 04:45:53;;;;;;;4.10;2.65;;;;;;;19.04;41.98;100273.81;5131439;28;20039;-64
2022/01/01 04:48:18;;;;;;;4.75;2.70;;;;;;;19.03;42.11;100269.41;5131397;28;20039;-55
2022/01/01 04:50:44;;;;;;;4.20;2.80;;;;;;;19.03;41.95;100273.00;5131560;28;20403;-55
2022/01/01 04:53:14;;;;;;;4.03;2.80;;;;;;;19.19;41.26;100273.16;5131367;28;20059;-55
2022/01/01 04:55:39;;;;;;;4.68;2.75;;;;;;;20.03;39.55;100268.84;5131438;27;20043;-55
2022/01/01 04:58:05;;;;;;;3.40;2.17;;;;;;;19.86;40.04;100274.66;5131531;27;20130;-55
2022/01/01 05:00:30;;;;;;;4.78;2.85;;;;;;;19.68;40.49;100274.06;5131308;28;20164;-55
2022/01/01 05:02:56;;;;;;;3.45;2.47;;;;;;;19.58;40.87;100280.09;5131282;28;20043;-55
2022/01/01 05:05:21;;;;;;;4.28;2.58;;;;;;;19.72;40.33;100288.88;5131237;28;20062;-55
2022/01/01 05:07:46;;;;;;;4.00;2.67;;;;;;;20.81;38.07;100272.41;5131258;27;20180;-55
2022/01/01 05:10:12;;;;;;;5.03;2.40;;;;;;;20.58;38.71;100269.38;5131251;28;20072;-55
2022/01/01 05:12:37;;;;;;;3.10;2.00;;;;;;;20.29;39.02;100271.25;5131389;28;20430;-55
2022/01/01 05:15:03;;;;;;;3.45;2.30;;;;;;;20.08;39.73;100267.00;5131375;27;20035;-55
2022/01/01 05:17:28;;;;;;;6.53;2.30;;;;;;;19.90;40.15;100275.56;5131162;27;20143;-55
2022/01/01 05:19:54;;;;;;;3.67;2.40;;;;;;;19.77;40.47;100280.31;5129895;27;20050;-55
2022/01/01 05:22:19;;;;;;;3.72;2.10;;;;;;;19.67;40.98;100285.53;5130902;28;20043;-56
2022/01/01 05:24:44;;;;;;;4.90;2.70;;;;;;;19.59;41.07;100298.34;5131067;28;20168;-56
2022/01/01 05:27:10;;;;;;;3.72;2.55;;;;;;;19.47;40.95;100293.53;5131078;28;20043;-55
2022/01/01 05:29:35;;;;;;;3.97;2.60;;;;;;;19.42;41.17;100292.97;5131039;28;20039;-55
2022/01/01 05:32:01;;;;;;;5.65;2.95;;;;;;;19.34;41.08;100294.66;5130867;28;20050;-55
2022/01/01 05:34:26;;;;;;;3.75;2.70;;;;;;;19.34;40.98;100297.44;5116396;28;20052;-55
2022/01/01 05:36:52;;;;;;;3.85;2.60;;;;;;;19.31;41.16;100303.69;5110248;28;20173;-55
2022/01/01 05:39:17;;;;;;;4.15;2.80;;;;;;;19.28;41.40;100298.00;5110289;28;20039;-55
2022/01/01 05:41:42;;;;;;;5.97;2.90;;;;;;;19.25;41.21;100300.31;5110322;28;20043;-55
2022/01/01 05:44:08;;;;;;;3.78;2.50;;;;;;;19.23;41.19;100305.41;5110387;28;20039;-55
2022/01/01 05:46:33;;;;;;;4.60;2.70;;;;;;;19.21;41.24;100302.16;5110212;28;20081;-55
2022/01/01 05:48:59;;;;;;;4.63;2.45;;;;;;;19.18;40.98;100296.50;5110324;28;20135;-55
2022/01/01 05:51:24;;;;;;;4.22;2.65;;;;;;;19.16;41.25;100299.63;5110282;28;20044;-55
2022/01/01 05:53:50;;;;;;;6.63;2.40;;;;;;;19.16;41.09;100305.16;5110122;28;20465;-55
2022/01/01 05:56:15;;;;;;;3.72;2.28;;;;;;;19.14;41.47;100301.91;5110268;28;20047;-55
2022/01/01 05:58:41;;;;;;;5.03;3.00;;;;;;;19.14;41.35;100295.53;5110276;28;20059;-55
2022/01/01 06:01:06;;;;;;;4.13;2.70;;;;;;;19.13;41.52;100303.06;5110030;28;20091;-55
2022/01/01 06:03:31;;;;;;;3.78;2.50;;;;;;;19.13;41.47;100305.00;5110034;28;20043;-55
2022/01/01 06:05:57;;;;;;;5.22;2.50;;;;;;;19.11;41.65;100302.59;5109974;28;20031;-55
2022/01/01 06:08:28;;;;;;;4.78;2.85;;;;;;;19.09;41.46;100304.91;5109764;28;20051;-55
2022/01/01 06:10:53;;;;;;;4.55;2.67;;;;;;;19.10;41.41;100317.63;5109791;28;20055;-55
2022/01/01 06:13:19;;;;;;;4.28;2.20;;;;;;;19.11;41.59;100316.47;5109810;28;20047;-55
2022/01/01 06:15:44;;;;;;;3.88;2.65;;;;;;;19.11;41.50;100313.69;5110008;28;20036;-55
2022/01/01 06:18:10;;;;;;;3.95;2.58;;;;;;;19.11;41.65;100312.88;5109899;28;20043;-55
2022/01/01 06:20:35;;;;;;;5.10;2.92;;;;;;;19.12;41.69;100317.25;5109795;28;20084;-55
2022/01/01 06:23:02;;;;;;;4.15;2.30;;;;;;;19.10;41.37;100314.84;5109797;28;20043;-55
2022/01/01 06:25:27;;;;;;;3.50;2.50;;;;;;;19.09;41.67;100312.41;5109599;28;20043;-55
2022/01/01 06:27:53;;;;;;;3.88;2.55;;;;;;;19.08;41.42;100317.16;5109623;28;20051;-55
2022/01/01 06:30:18;;;;;;;3.97;2.50;;;;;;;19.09;41.43;100327.09;5110217;28;20039;-55
2022/01/01 06:32:45;;;;;;;4.63;2.90;;;;;;;19.09;41.09;100331.81;5113258;28;20054;-55
2022/01/01 06:35:10;;;;;;;4.55;3.10;;;;;;;19.07;41.21;100329.38;5113154;28;20047;-55
2022/01/01 06:37:35;;;;;;;4.97;3.35;;;;;;;19.09;41.42;100329.06;5113293;28;20054;-55
2022/01/01 06:40:01;;;;;;;4.50;3.10;;;;;;;19.08;41.38;100327.44;5113262;28;20042;-55
2022/01/01 06:42:26;;;;;;;5.00;3.30;;;;;;;19.06;41.35;100319.44;5113032;28;20089;-55
2022/01/01 06:44:52;;;;;;;5.03;3.47;;;;;;;19.06;41.25;100327.75;5112985;28;20035;-55
2022/01/01 06:47:17;;;;;;;5.28;3.40;;;;;;;19.07;41.46;100329.38;5112928;28;20503;-55
2022/01/01 06:49:42;;;;;;;4.85;3.15;;;;;;;19.08;41.57;100339.34;5112754;28;20089;-55
2022/01/01 06:52:08;;;;;;;5.47;3.20;;;;;;;19.09;41.34;100331.81;5112440;28;20051;-63
2022/01/01 06:54:33;;;;;;;4.72;2.92;;;;;;;19.06;41.39;100338.03;5112723;28;20071;-64
2022/01/01 06:56:59;;;;;;;4.63;3.25;;;;;;;19.08;41.24;100338.53;5112880;28;20055;-63
2022/01/01 06:59:24;;;;;;;5.05;3.08;;;;;;;19.05;41.18;100340.00;5112936;28;20040;-64
2022/01/01 07:01:50;;;;;;;4.65;2.92;;;;;;;19.04;40.97;100343.94;5094589;28;20047;-64
2022/01/01 07:04:15;;;;;;;5.00;2.80;;;;;;;19.05;41.17;100344.72;5112690;28;20039;-64
2022/01/01 07:06:40;;;;;;;4.25;3.13;;;;;;;19.07;41.07;100346.00;5112719;28;20093;-64
2022/01/01 07:09:07;;;;;;;4.40;2.90;;;;;;;19.06;41.01;100340.81;5112578;28;20047;-64
2022/01/01 07:11:32;;;;;;;5.05;2.92;;;;;;;19.07;41.08;100346.00;5112267;28;20526;-64
2022/01/01 07:13:58;;;;;;;4.72;3.10;;;;;;;19.07;40.99;100351.56;5112611;28;20044;-55
2022/01/01 07:16:23;;;;;;;5.45;3.08;;;;;;;19.08;40.91;100347.66;5112727;28;20035;-64
2022/01/01 07:18:49;;;;;;;5.82;3.38;;;;;;;19.06;40.98;100347.16;5112538;28;20046;-55
2022/01/01 07:21:14;;;;;;;5.13;3.30;;;;;;;19.07;41.09;100353.50;5112440;28;20043;-55
2022/01/01 07:23:40;;;;;;;5.13;3.30;;;;;;;19.07;41.05;100362.63;5112697;28;20051;-55
2022/01/01 07:26:05;;;;;;;4.35;2.80;;;;;;;19.06;41.02;100358.25;5112642;28;20043;-55
2022/01/01 07:28:31;;;;;;;5.25;3.38;;;;;;;19.07;41.19;100359.88;5112388;28;20138;-55
2022/01/01 07:30:56;;;;;;;4.45;2.72;;;;;;;19.03;41.08;100350.63;5112442;28;20039;-55
2022/01/01 07:33:22;;;;;;;4.20;2.72;;;;;;;19.06;41.13;100360.22;5112337;28;20474;-55
2022/01/01 07:35:47;;;;;;;5.75;2.97;;;;;;;19.06;41.07;100358.25;5112355;28;20123;-64
2022/01/01 07:38:13;;;;;;;4.78;2.90;;;;;;;19.05;41.01;100362.19;5112179;28;20043;-64
2022/01/01 07:40:39;;;;;;;4.25;2.70;;;;;;;19.05;41.11;100375.22;5112177;28;20043;-55
2022/01/01 07:43:13;;;;;;;4.03;2.88;;;;;;;19.05;41.12;100361.38;5110952;28;20408;-55
2022/01/01 07:45:40;;;;;;;4.43;2.88;;;;;;;19.03;41.00;100358.94;5112396;28;20047;-64
2022/01/01 07:48:06;;;;;;;4.07;2.78;;;;;;;19.06;40.95;100369.34;5112035;28;20050;-64
2022/01/01 07:50:32;;;;;;;4.43;2.83;;;;;;;19.05;41.18;100364.94;5112030;28;20067;-64
2022/01/01 07:52:57;;;;;;;5.13;2.65;;;;;;;19.05;41.16;100372.47;5111906;28;20081;-55
2022/01/01 07:55:23;;;;;;;5.40;2.95;;;;;;;19.07;40.91;100368.19;5111910;28;20453;-55
2022/01/01 07:57:48;;;;;;;4.15;2.90;;;;;;;19.07;41.15;100365.41;5111892;28;20075;-63
2022/01/01 08:00:14;;;;;;;4.32;2.88;;;;;;;19.06;40.77;100371.31;5112042;28;20135;-64
2022/01/01 08:02:44;;;;;;;4.43;2.80;;;;;;;19.06;40.66;100382.41;5111877;28;20066;-63
2022/01/01 08:05:11;;;;;;;4.93;3.20;;;;;;;19.04;40.94;100360.56;5111713;28;20043;-64
2022/01/01 08:07:37;;;;;;;5.05;2.83;;;;;;;19.05;40.96;100367.72;5111365;28;20048;-64
2022/01/01 08:10:04;;;;;;;5.00;3.17;;;;;;;19.05;40.94;100355.81;5111867;28;20092;-65
2022/01/01 08:12:29;;;;;;;4.35;3.00;;;;;;;19.02;41.08;100349.00;5111768;28;20048;-64
2022/01/01 08:14:56;;;;;;;3.95;2.53;;;;;;;19.05;41.18;100353.06;5112110;28;20047;-64
2022/01/01 08:17:23;;;;;;;4.07;2.58;;;;;;;19.05;40.79;100350.28;5111528;28;20051;-64
2022/01/01 08:19:49;;;;;;;5.07;2.67;;;;;;;19.04;40.93;100346.69;5110620;28;20118;-55
2022/01/01 08:22:14;;;;;;;4.90;3.08;;;;;;;19.04;40.94;100354.22;5111640;28;20127;-55
2022/01/01 08:24:40;;;;;;;4.05;2.70;;;;;;;19.03;41.13;100353.41;5111645;28;20044;-55
2022/01/01 08:27:07;;;;;;;4.70;3.00;;;;;;;19.06;41.37;100358.25;5111480;28;20039;-55
2022/01/01 08:29:32;;;;;;;4.45;2.70;;;;;;;19.07;41.18;100362.63;5111498;28;20066;-55
2022/01/01 08:31:58;;;;;;;4.03;2.88;;;;;;;19.04;41.27;100355.00;5111465;28;20046;-55
2022/01/01 08:34:24;;;;;;;4.68;2.90;;;;;;;19.03;41.39;100356.16;5111127;28;20051;-55
2022/01/01 08:36:49;;;;;;;4.78;2.60;;;;;;;19.06;41.60;100365.75;5111184;28;20097;-55
2022/01/01 08:39:16;;;;;;;3.97;2.47;;;;;;;19.07;41.16;100365.41;5111353;28;20040;-55
2022/01/01 08:41:46;;;;;;;4.70;2.92;;;;;;;19.06;41.36;100366.56;5111195;28;20051;-55
2022/01/01 08:44:12;;;;;;;6.00;3.47;;;;;;;19.06;41.34;100360.22;5111194;28;20628;-55
2022/01/01 08:46:37;;;;;;;4.80;3.30;;;;;;;19.05;41.49;100361.38;5111122;28;20408;-55
2022/01/01 08:49:03;;;;;;;5.60;3.53;;;;;;;19.06;41.47;100361.03;5111203;28;20472;-55
2022/01/01 08:51:29;;;;;;;5.43;3.40;;;;;;;19.06;41.25;100360.22;5111044;28;20089;-55
2022/01/01 08:53:55;;;;;;;5.05;3.53;;;;;;;19.06;41.19;100363.78;5110722;28;20048;-55
2022/01/01 08:56:20;;;;;;;4.97;3.60;;;;;;;19.07;41.25;100362.63;5110923;28;20047;-55
2022/01/01 08:58:46;;;;;;;5.13;3.53;;;;;;;19.05;41.42;100351.09;5110980;28;20047;-55
2022/01/01 09:01:12;;;;;;;4.57;3.20;;;;;;;19.06;41.38;100352.72;5111102;28;20061;-55
2022/01/01 09:03:37;;;;;;;4.75;3.03;;;;;;;19.05;41.26;100353.06;5110916;28;20043;-55
2022/01/01 09:06:05;;;;;;;6.80;4.15;;;;;;;19.04;41.09;100352.25;5111158;28;20097;-55
2022/01/01 09:08:32;;;;;;;5.90;3.63;;;;;;;19.05;41.04;100350.28;5110663;28;20442;-55
2022/01/01 09:10:57;;;;;;;5.28;3.50;;;;;;;19.07;41.59;100345.19;5110575;28;20369;-55
2022/01/01 09:13:22;;;;;;;4.88;3.40;;;;;;;19.06;41.13;100340.81;5110608;28;20533;-55
2022/01/01 09:15:48;;;;;;;5.10;3.15;;;;;;;19.04;41.12;100345.88;5110816;28;20422;-55
2022/01/01 09:18:14;;;;;;;5.35;3.13;;;;;;;19.07;41.35;100345.19;5110688;28;20055;-55
2022/01/01 09:20:39;;;;;;;5.47;3.65;;;;;;;19.07;41.20;100342.41;5110551;28;20468;-55
2022/01/01 09:23:05;;;;;;;4.32;3.15;;;;;;;19.08;41.24;100336.56;5110689;28;20040;-55
2022/01/01 09:25:30;;;;;;;5.07;3.28;;;;;;;19.08;41.58;100342.09;5110513;28;20043;-55
2022/01/01 09:27:55;;;;;;;5.40;3.42;;;;;;;19.05;41.22;100337.22;5110364;28;20067;-55
2022/01/01 09:30:21;;;;;;;4.53;3.15;;;;;;;19.06;41.24;100344.38;5110468;28;20051;-55
2022/01/01 09:32:46;;;;;;;5.72;3.35;;;;;;;19.06;41.68;100341.63;5110551;28;20039;-55
2022/01/01 09:35:14;;;;;;;5.10;3.00;;;;;;;19.06;41.36;100347.16;5110413;28;20051;-55
2022/01/01 09:37:39;;;;;;;4.95;2.92;;;;;;;19.06;41.30;100340.81;5110361;28;20096;-54
2022/01/01 09:40:05;;;;;;;4.95;3.28;;;;;;;19.06;41.44;100341.63;5110421;28;20075;-55
2022/01/01 09:42:31;;;;;;;4.88;3.20;;;;;;;19.07;41.41;100334.91;5110258;28;20035;-55
2022/01/01 09:44:58;;;;;;;5.82;3.55;;;;;;;19.07;41.44;100334.91;5110259;28;20097;-55
2022/01/01 09:47:24;;;;;;;4.63;3.00;;;;;;;19.07;41.53;100340.47;5110218;28;20047;-55
2022/01/01 09:49:49;;;;;;;4.88;3.20;;;;;;;19.09;41.48;100343.72;5110299;28;20044;-55
2022/01/01 09:52:16;;;;;;;4.25;2.90;;;;;;;19.10;41.34;100334.25;5109957;28;20049;-55
2022/01/01 09:54:42;;;;;;;5.07;3.58;;;;;;;19.07;41.09;100326.59;5109953;28;20074;-55
2022/01/01 09:57:10;;;;;;;4.45;3.03;;;;;;;19.09;41.32;100329.84;5110141;28;20423;-55
2022/01/01 09:59:37;;;;;;;4.57;3.30;;;;;;;19.08;41.35;100331.00;5110068;28;20043;-55
2022/01/01 10:02:03;;;;;;;5.38;3.28;;;;;;;19.10;41.66;100322.34;5110019;28;20035;-55
2022/01/01 10:04:40;;;;;;;5.10;2.95;;;;;;;19.09;41.64;100326.28;5110030;28;20066;-55
2022/01/01 10:07:06;;;;;;;7.18;3.35;;;;;;;19.11;40.89;100329.50;5116395;28;20142;-55
2022/01/01 10:09:33;;;;;;;4.60;3.00;;;;;;;19.11;40.91;100330.31;5116589;28;20044;-55
2022/01/01 10:11:59;;;;;;;4.30;2.90;;;;;;;19.10;41.19;100331.47;5116566;28;20063;-55
2022/01/01 10:14:41;;;;;;;4.53;3.30;;;;;;;19.09;41.35;100324.31;5116857;28;20054;-55
2022/01/01 10:17:21;;;;;;;5.13;2.95;;;;;;;19.08;41.13;100319.91;5116607;28;20100;-63
2022/01/01 10:19:49;;;;;;;3.95;2.88;;;;;;;19.09;41.12;100321.53;5116577;28;20043;-64
2022/01/01 10:22:23;;;;;;;4.47;2.78;;;;;;;19.08;40.76;100321.88;5116548;28;20519;-64
2022/01/01 10:28:03;;;;;;;6.07;2.75;;;;;;;19.13;41.50;100321.66;5116448;28;20470;-64
2022/01/01 10:30:28;;;;;;;4.30;2.63;;;;;;;19.12;41.04;100325.59;5116302;28;20040;-55
2022/01/01 10:33:10;;;;;;;3.95;2.63;;;;;;;19.06;41.20;100313.88;5116469;28;20092;-64
2022/01/01 10:35:45;;;;;;;4.22;2.58;;;;;;;19.11;41.37;100318.41;5097994;28;20036;-64
2022/01/01 10:38:22;;;;;;;3.97;2.20;;;;;;;19.11;41.24;100312.88;5116315;28;20043;-55
2022/01/01 10:40:54;;;;;;;4.25;2.90;;;;;;;19.10;41.16;100312.06;5116429;28;20498;-55
2022/01/01 10:43:20;;;;;;;4.15;2.80;;;;;;;19.08;40.97;100302.47;5116248;28;20047;-55
2022/01/01 10:45:47;;;;;;;4.10;2.65;;;;;;;19.08;41.17;100308.84;5116600;28;20496;-55
2022/01/01 10:48:40;;;;;;;3.92;2.67;;;;;;;19.11;40.85;100301.78;5116071;28;20048;-55
2022/01/01 10:51:08;;;;;;;4.07;2.40;;;;;;;20.17;38.58;100299.03;5116313;28;20131;-55
2022/01/01 10:53:35;;;;;;;4.10;2.80;;;;;;;20.49;38.02;100300.06;5116061;28;20044;-55
2022/01/01 10:56:16;;;;;;;5.30;3.15;;;;;;;20.23;38.41;100296.84;5116194;28;20047;-56
2022/01/01 10:58:42;;;;;;;4.10;2.45;;;;;;;20.02;38.87;100296.97;5116085;28;20130;-55
2022/01/01 11:01:09;;;;;;;4.22;2.80;;;;;;;19.83;39.29;100296.75;5116136;28;20048;-55
2022/01/01 11:03:42;;;;;;;5.00;3.00;;;;;;;19.66;39.39;100295.00;5116113;28;20039;-55
2022/01/01 11:06:08;;;;;;;;;;;;;;;19.60;39.81;100290.84;5116743;28;20055;-55
2022/01/01 11:08:35;;;;;;;4.57;2.70;;;;;;;19.47;40.03;100287.19;5115945;28;19916;-55
2022/01/01 11:11:01;;;;;;;4.13;2.90;;;;;;;19.40;40.16;100284.19;5115714;28;20392;-55
2022/01/01 11:13:28;;;;;;;4.55;2.58;;;;;;;19.36;40.16;100277.69;5115913;28;20059;-55
2022/01/01 11:15:54;;;;;;;4.50;2.90;;;;;;;19.29;40.37;100275.50;5115938;28;20044;-55
2022/01/01 11:18:21;;;;;;;4.63;2.60;;;;;;;19.25;40.49;100269.81;5112801;28;20047;-55
2022/01/01 11:20:47;;;;;;;4.82;2.70;;;;;;;19.23;40.48;100271.31;5112392;28;20055;-55
2022/01/01 11:23:13;;;;;;;4.50;2.90;;;;;;;19.20;40.68;100263.66;5112398;28;20419;-55
2022/01/01 11:25:40;;;;;;;4.65;2.90;;;;;;;19.18;40.53;100269.56;5112420;28;20538;-64
2022/01/01 11:28:10;;;;;;;5.40;3.25;;;;;;;19.16;40.60;100263.56;5112370;28;20039;-64